Latest Weather Observations for Double Island Point

IDQ60801

Issued at 11:02 pm EST Tuesday 28 January 2020 (issued every 10 minutes, with the page automatically refreshed every 10 minutes)

About weather observations | Map of weather stations | Latest weather observations for QLD | Other Formats
Station Details ID: 040068 Name: DOUBLE ISLAND POINT LIGHTHOUSE Lat: -25.93 Lon: 153.19 Height: 95.64 m
Data from the previous 72 hours. | See also: Recent months at Double Island Point
Date/Time
EST
Temp
°C
App
Temp
°C
Dew
Point
°C
Rel
Hum
%
Delta-T
°C
Wind Press
QNH
hPa
Press
MSL
hPa
Rain since
9am
mm
Dir  Spd
km/h
Gust
km/h
Spd
kts
Gust
kts
28/11:00pm 24.9 - - - - NNE 15 20 8 11 1015.1 1014.5 3.2
28/10:30pm 25.0 - - - - E 9 11 5 6 1015.3 1014.7 3.2
28/10:00pm 24.9 - - - - E 9 11 5 6 1015.4 1014.8 3.2
28/09:30pm 25.0 - - - - E 7 11 4 6 1015.3 1014.7 3.2
28/09:00pm 25.1 - - - - E 13 15 7 8 1015.1 1014.5 3.2
28/08:30pm 25.1 - - - - E 15 17 8 9 1014.9 1014.3 3.2
28/08:00pm 25.1 - - - - E 17 20 9 11 1014.6 1014.0 3.2
28/07:30pm 25.2 - - - - E 15 19 8 10 1014.5 1013.9 3.2
28/07:00pm 25.1 - - - - E 17 20 9 11 1014.1 1013.5 3.2
28/06:30pm 25.0 - - - - ESE 19 22 10 12 1013.8 1013.2 3.2
28/06:00pm 25.1 - - - - ESE 17 20 9 11 1013.3 1012.8 3.2
28/05:30pm 25.8 - - - - E 15 19 8 10 1013.0 1012.5 3.2
28/05:00pm 25.3 - - - - ESE 19 24 10 13 1012.7 1012.2 3.2
28/04:30pm 25.5 - - - - ESE 22 26 12 14 1012.7 1012.2 3.2
28/04:00pm 25.8 - - - - SE 15 20 8 11 1012.6 1012.1 3.2
28/03:30pm 25.8 - - - - ESE 17 20 9 11 1012.7 1012.2 3.2
28/03:00pm 25.7 - - - - SE 19 22 10 12 1012.9 1012.4 3.0
28/02:30pm 25.4 - - - - SE 17 19 9 10 1013.2 1012.7 3.0
28/02:00pm 24.8 - - - - ESE 9 15 5 8 1013.5 1012.9 3.0
28/01:30pm 24.7 - - - - E 17 22 9 12 1013.8 1013.2 2.6
28/01:00pm 24.5 - - - - E 9 13 5 7 1014.1 1013.5 2.2
28/12:30pm 25.2 - - - - ESE 24 30 13 16 1014.2 1013.6 0.2
28/12:00pm 25.2 - - - - ESE 17 22 9 12 1014.2 1013.6 0.2
28/11:30am 26.4 - - - - SSE 17 19 9 10 1014.3 1013.7 0.0
28/11:00am 25.5 - - - - SSE 17 20 9 11 1014.5 1013.9 0.0
28/10:30am 25.7 - - - - SE 17 20 9 11 1014.5 1013.9 0.0
28/10:00am 27.1 - - - - E 11 13 6 7 1014.2 1013.6 0.0
28/09:30am 26.3 - - - - NE 9 13 5 7 1014.1 1013.5 0.0
28/09:00am 25.6 - - - - NNE 4 9 2 5 1014.1 1013.5 10.6
28/08:30am 24.0 - - - - NNE 6 9 3 5 1014.2 1013.6 10.6
28/08:00am 23.4 - - - - NNE 9 15 5 8 1014.0 1013.4 10.6
28/07:30am 22.8 - - - - NNE 9 17 5 9 1014.2 1013.6 9.8
28/07:00am 22.5 - - - - NE 13 20 7 11 1014.2 1013.6 9.2
28/06:30am 22.6 - - - - ENE 22 32 12 17 1014.1 1013.5 7.6
28/06:00am 23.1 - - - - NE 17 26 9 14 1013.8 1013.2 3.0
28/05:30am 23.2 - - - - ENE 22 35 12 19 1013.2 1012.7 0.2
28/05:00am 23.7 - - - - E 11 13 6 7 1012.7 1012.2 0.2
28/04:30am 23.4 - - - - E 11 15 6 8 1012.5 1012.0 0.2
28/04:00am 23.3 - - - - E 13 17 7 9 1012.5 1012.0 0.2
28/03:30am 23.3 - - - - ENE 17 22 9 12 1012.6 1012.1 0.2
28/03:00am 23.6 - - - - ENE 11 13 6 7 1012.5 1012.0 0.2
28/02:30am 23.6 - - - - ENE 9 11 5 6 1012.8 1012.3 0.2
28/02:00am 23.5 - - - - ENE 22 28 12 15 1012.8 1012.3 0.0
28/01:30am 23.9 - - - - ESE 33 39 18 21 1012.9 1012.4 0.0
28/01:00am 23.8 - - - - E 24 28 13 15 1013.1 1012.6 0.0
28/12:30am 24.1 - - - - ESE 20 24 11 13 1013.3 1012.8 0.0
28/12:00am 24.3 - - - - ESE 28 35 15 19 1013.8 1013.2 0.0
 
Date/Time
EST
Temp
°C
App
Temp
°C
Dew
Point
°C
Rel
Hum
%
Delta-T
°C
Wind Press
QNH
hPa
Press
MSL
hPa
Rain since
9am
mm
Dir  Spd
km/h
Gust
km/h
Spd
kts
Gust
kts
27/11:30pm 24.6 - - - - ESE 30 35 16 19 1013.8 1013.2 0.0
27/11:00pm 24.1 - - - - ESE 32 37 17 20 1014.0 1013.4 0.0
27/10:30pm 24.3 - - - - ESE 35 37 19 20 1014.0 1013.4 0.0
27/10:00pm 24.6 - - - - ESE 33 39 18 21 1014.1 1013.5 0.0
27/09:30pm 24.5 - - - - ESE 33 37 18 20 1014.4 1013.8 0.0
27/09:00pm 24.6 - - - - ESE 30 35 16 19 1014.4 1013.8 0.0
27/08:30pm 24.8 - - - - E 33 35 18 19 1014.0 1013.4 0.0
27/08:00pm 25.1 - - - - E 32 35 17 19 1013.9 1013.3 0.0
27/07:30pm 25.1 - - - - ESE 30 33 16 18 1013.8 1013.2 0.0
27/07:00pm 25.1 - - - - ESE 32 35 17 19 1013.3 1012.8 0.0
27/06:30pm 25.6 - - - - ESE 28 30 15 16 1013.2 1012.7 0.0
27/06:00pm 25.7 - - - - SE 24 28 13 15 1012.8 1012.3 0.0
27/05:30pm 25.8 - - - - ESE 24 28 13 15 1012.3 1011.8 0.0
27/05:00pm 26.2 - - - - ESE 26 30 14 16 1012.2 1011.7 0.0
27/04:30pm 26.1 - - - - ESE 26 32 14 17 1012.1 1011.6 0.0
27/04:00pm 26.4 - - - - ESE 26 30 14 16 1012.1 1011.6 0.0
27/03:30pm 27.3 - - - - ESE 26 30 14 16 1012.2 1011.7 0.0
27/03:00pm 27.0 - - - - ESE 26 32 14 17 1012.3 1011.8 0.0
27/02:30pm 27.8 - - - - ESE 24 28 13 15 1012.6 1012.1 0.0
27/02:00pm 27.7 - - - - ESE 24 28 13 15 1012.8 1012.3 0.0
27/01:30pm 27.8 - - - - ESE 24 28 13 15 1013.1 1012.6 0.0
27/01:00pm 28.9 - - - - ESE 24 28 13 15 1013.3 1012.8 0.0
27/12:30pm 28.7 - - - - ESE 22 26 12 14 1013.8 1013.2 0.0
27/12:00pm 28.4 - - - - ESE 19 22 10 12 1013.9 1013.3 0.0
27/11:30am 29.2 - - - - ESE 20 22 11 12 1014.2 1013.6 0.0
27/11:00am 29.4 - - - - ESE 17 20 9 11 1014.3 1013.7 0.0
27/10:30am 28.2 - - - - E 15 19 8 10 1014.5 1013.9 0.0
27/10:00am 28.5 - - - - E 17 19 9 10 1014.4 1013.8 0.0
27/09:30am 27.3 - - - - ESE 17 19 9 10 1014.4 1013.8 0.0
27/09:00am 27.2 - - - - SE 17 20 9 11 1014.3 1013.7 0.0
27/08:30am 27.1 - - - - ESE 19 20 10 11 1014.3 1013.7 0.0
27/08:00am 27.5 - - - - E 20 24 11 13 1014.0 1013.4 0.0
27/07:30am 26.0 - - - - E 22 26 12 14 1013.8 1013.2 0.0
27/07:00am 26.0 - - - - E 24 28 13 15 1013.5 1012.9 0.0
27/06:30am 25.0 - - - - E 26 30 14 16 1012.9 1012.4 0.0
27/06:00am 24.7 - - - - E 24 28 13 15 1012.8 1012.3 0.0
27/05:30am 24.4 - - - - E 24 30 13 16 1012.6 1012.1 0.0
27/05:00am 24.4 - - - - E 26 30 14 16 1012.3 1011.8 0.0
27/04:30am 24.6 - - - - ENE 26 30 14 16 1012.2 1011.7 0.0
27/04:00am 24.6 - - - - E 24 30 13 16 1012.1 1011.6 0.0
27/03:30am 24.7 - - - - E 28 30 15 16 1012.0 1011.5 0.0
27/03:00am 24.7 - - - - E 26 30 14 16 1012.1 1011.6 0.0
27/02:30am 24.7 - - - - E 24 32 13 17 1012.5 1012.0 0.0
27/02:00am 24.7 - - - - E 28 32 15 17 1012.8 1012.3 0.0
27/01:30am 24.8 - - - - E 30 33 16 18 1012.9 1012.4 0.0
27/01:00am 24.7 - - - - E 28 32 15 17 1013.3 1012.8 0.0
27/12:30am 24.9 - - - - ENE 26 32 14 17 1013.7 1013.1 0.0
27/12:00am 25.1 - - - - ENE 24 32 13 17 1014.0 1013.4 0.0
 
Date/Time
EST
Temp
°C
App
Temp
°C
Dew
Point
°C
Rel
Hum
%
Delta-T
°C
Wind Press
QNH
hPa
Press
MSL
hPa
Rain since
9am
mm
Dir  Spd
km/h
Gust
km/h
Spd
kts
Gust
kts
26/11:30pm 25.2 - - - - ENE 26 32 14 17 1014.4 1013.8 0.0
26/11:00pm 25.2 - - - - ENE 26 32 14 17 1014.6 1014.0 0.0
26/10:30pm 25.2 - - - - ENE 24 30 13 16 1014.6 1014.0 0.0
26/10:00pm 25.2 - - - - ENE 20 26 11 14 1014.6 1014.0 0.0
26/09:30pm 25.2 - - - - ENE 24 32 13 17 1014.5 1013.9 0.0
26/09:00pm 25.2 - - - - E 24 28 13 15 1014.4 1013.8 0.0
26/08:30pm 25.3 - - - - E 24 28 13 15 1014.1 1013.5 0.0
26/08:00pm 25.3 - - - - E 24 28 13 15 1013.9 1013.3 0.0
26/07:30pm 25.4 - - - - E 26 30 14 16 1013.7 1013.1 0.0
26/07:00pm 25.5 - - - - E 26 30 14 16 1013.3 1012.8 0.0
26/06:30pm 25.7 - - - - E 28 30 15 16 1012.9 1012.4 0.0
26/06:00pm 26.2 - - - - E 24 28 13 15 1012.7 1012.2 0.0
26/05:30pm 26.6 - - - - E 26 30 14 16 1012.5 1012.0 0.0
26/05:00pm 27.0 - - - - E 28 30 15 16 1012.2 1011.7 0.0
26/04:30pm 27.4 - - - - E 26 30 14 16 1012.3 1011.8 0.0
26/04:00pm 27.7 - - - - E 26 30 14 16 1012.4 1011.9 0.0
26/03:30pm 28.2 - - - - E 24 28 13 15 1012.6 1012.1 0.0
26/03:00pm 28.7 - - - - E 24 28 13 15 1012.8 1012.3 0.0
26/02:30pm 28.9 - - - - E 24 28 13 15 1013.0 1012.5 0.0
26/02:00pm 29.3 - - - - E 22 26 12 14 1013.2 1012.7 0.0
26/01:30pm 29.6 - - - - E 20 26 11 14 1013.5 1012.9 0.0
26/01:00pm 29.1 - - - - E 22 26 12 14 1013.8 1013.2 0.0
26/12:30pm 29.5 - - - - E 24 28 13 15 1014.0 1013.4 0.0
26/12:00pm 29.3 - - - - E 22 28 12 15 1014.2 1013.6 0.0
26/11:30am 28.1 - - - - ENE 22 28 12 15 1014.3 1013.7 0.0
26/11:00am 28.3 - - - - ENE 20 26 11 14 1014.5 1013.9 0.0
26/10:30am 27.7 - - - - ENE 24 28 13 15 1014.5 1013.9 0.0
26/10:00am 27.9 - - - - ENE 22 28 12 15 1014.5 1013.9 0.0
26/09:30am 27.8 - - - - ENE 22 30 12 16 1014.6 1014.0 0.0
26/09:00am 27.1 - - - - ENE 22 26 12 14 1014.4 1013.8 3.4
26/08:30am 27.0 - - - - ENE 17 22 9 12 1014.3 1013.7 3.4
26/08:00am 26.4 - - - - NE 13 17 7 9 1014.3 1013.7 3.4
26/07:30am 24.3 - - - - ENE 19 28 10 15 1014.3 1013.7 3.4
26/07:00am 24.2 - - - - ENE 15 19 8 10 1014.1 1013.5 3.4
26/06:30am 23.6 - - - - NE 11 19 6 10 1013.7 1013.1 3.4
26/06:00am 22.5 - - - - N 4 7 2 4 1013.3 1012.8 3.4
26/05:30am 22.3 - - - - N 15 28 8 15 1013.2 1012.7 3.0
26/05:00am 22.9 - - - - NNW 15 22 8 12 1012.8 1012.3 0.6
26/04:30am 23.1 - - - - NNE 28 35 15 19 1012.6 1012.1 0.0
26/04:00am 23.2 - - - - NNE 32 43 17 23 1012.3 1011.8 0.0
26/03:30am 24.0 - - - - ENE 30 39 16 21 1012.2 1011.7 0.0
26/03:00am 24.1 - - - - NE 22 33 12 18 1012.2 1011.7 0.0
26/02:30am 24.8 - - - - E 24 28 13 15 1012.4 1011.9 0.0
26/02:00am 24.8 - - - - E 22 26 12 14 1012.6 1012.1 0.0
26/01:30am 25.0 - - - - E 20 26 11 14 1013.0 1012.5 0.0
26/01:00am 25.2 - - - - E 20 24 11 13 1013.1 1012.6 0.0
26/12:30am 25.1 - - - - ENE 20 24 11 13 1013.5 1012.9 0.0
26/12:00am 25.3 - - - - ENE 22 26 12 14 1013.9 1013.3 0.0
 
Date/Time
EST
Temp
°C
App
Temp
°C
Dew
Point
°C
Rel
Hum
%
Delta-T
°C
Wind Press
QNH
hPa
Press
MSL
hPa
Rain since
9am
mm
Dir  Spd
km/h
Gust
km/h
Spd
kts
Gust
kts
25/11:30pm 25.3 - - - - ENE 20 26 11 14 1014.2 1013.6 0.0

Other formats

Comma delimited format used in spreadsheet applications
http://www.bom.gov.au/fwo/IDQ60801/IDQ60801.94584.axf

JavaScript Object Notation format (JSON) in row-major order
http://www.bom.gov.au/fwo/IDQ60801/IDQ60801.94584.json

Data quality

Most of these data are generated automatically and are frequently updated. Quality checks on data are not normally performed. It is possible for incorrect values to appear. Refer to information at About Latest Weather Observations and please check the disclaimer before using these data.